Latest Weather Observations for Gladstone Airport

IDQ60801

Issued at 3:32 pm EST Sunday 11 December 2016 (issued every 30 minutes, with the page automatically refreshed every 10 minutes)

About weather observations | Map of weather stations | Latest weather observations for QLD | Other Formats
Station Details ID: 039326 Name: GLADSTONE AIRPORT Lat: -23.87 Lon: 151.22 Height: 16.6 m
Data from the previous 72 hours. | See also: Recent months at Gladstone Airport
Date/Time
EST
Temp
°C
App
Temp
°C
Dew
Point
°C
Rel
Hum
%
Delta-T
°C
Wind Press
QNH
hPa
Press
MSL
hPa
Rain since
9am
mm
Dir  Spd
km/h
Gust
km/h
Spd
kts
Gust
kts
11/03:00pm 25.0 24.0 18.0 65 4.4 ESE 20 30 11 16 1017.2 1017.1 0.0
11/02:30pm 25.5 24.1 17.9 63 4.8 ESE 22 32 12 17 1017.5 1017.4 0.0
11/02:00pm 25.2 23.2 18.2 65 4.4 ESE 26 33 14 18 1017.7 1017.6 0.0
11/01:30pm 26.0 25.5 18.7 64 4.7 SE 19 30 10 16 1017.8 1017.7 0.0
11/01:00pm 25.3 23.2 18.0 64 4.6 ESE 26 39 14 21 1018.0 1017.9 0.0
11/12:30pm 25.6 23.4 17.0 59 5.3 SE 24 35 13 19 1018.2 1018.1 0.0
11/12:00pm 25.5 23.9 17.4 61 5.0 ESE 22 32 12 17 1018.4 1018.3 0.0
11/11:30am 25.3 23.2 17.2 61 5.0 ESE 24 39 13 21 1018.6 1018.5 0.0
11/11:00am 25.8 23.7 17.2 59 5.3 SE 24 35 13 19 1018.6 1018.5 0.0
11/10:30am 25.9 23.4 17.0 58 5.5 SE 26 44 14 24 1018.6 1018.5 0.0
11/10:00am 25.5 23.7 16.9 59 5.3 SE 22 33 12 18 1018.5 1018.4 0.0
11/09:30am 25.6 24.5 17.8 62 4.9 SE 20 33 11 18 1018.1 1018.0 0.0
11/09:00am 24.7 22.4 17.7 65 4.4 SE 26 37 14 20 1018.1 1018.0 1.2
11/08:30am 24.1 22.0 17.1 65 4.3 SE 24 35 13 19 1018.0 1017.9 1.2
11/08:00am 24.0 23.0 17.5 67 4.0 SE 19 28 10 15 1017.9 1017.8 1.2
11/07:30am 23.8 22.7 17.3 67 4.0 SE 19 30 10 16 1018.0 1017.9 1.2
11/07:00am 24.0 24.0 17.3 66 4.1 SE 13 20 7 11 1018.1 1018.0 1.2
11/06:30am 23.4 23.0 17.2 68 3.8 SSE 15 20 8 11 1017.9 1017.8 1.2
11/06:00am 23.3 22.8 16.8 67 4.0 SSE 15 24 8 13 1017.6 1017.5 1.2
11/05:30am 23.3 22.3 16.6 66 4.1 SE 17 26 9 14 1016.9 1016.8 1.2
11/05:00am 23.3 22.3 16.6 66 4.1 SE 17 22 9 12 1016.9 1016.8 1.2
11/04:30am 23.1 22.3 16.2 65 4.2 SSE 15 24 8 13 1016.8 1016.7 1.2
11/04:00am 23.2 22.1 16.3 65 4.2 SE 17 24 9 13 1016.7 1016.6 1.2
11/03:30am 23.2 22.1 16.3 65 4.2 SE 17 26 9 14 1016.2 1016.1 1.2
11/03:00am 23.2 22.5 16.5 66 4.1 SE 15 20 8 11 1016.3 1016.2 1.2
11/02:30am 23.4 22.7 16.4 64 4.3 SE 15 22 8 12 1016.4 1016.3 1.2
11/02:00am 23.7 22.4 16.7 65 4.3 SE 19 28 10 15 1016.9 1016.8 1.2
11/01:30am 23.9 22.6 16.7 64 4.4 SE 19 28 10 15 1016.9 1016.8 1.2
11/01:00am 23.9 22.9 16.7 64 4.4 SSE 17 26 9 14 1017.2 1017.1 1.2
11/12:30am 24.1 22.2 16.6 63 4.6 SE 22 33 12 18 1017.3 1017.2 1.2
11/12:00am 24.3 22.7 16.6 62 4.7 SE 20 28 11 15 1017.7 1017.6 1.2
 
Date/Time
EST
Temp
°C
App
Temp
°C
Dew
Point
°C
Rel
Hum
%
Delta-T
°C
Wind Press
QNH
hPa
Press
MSL
hPa
Rain since
9am
mm
Dir  Spd
km/h
Gust
km/h
Spd
kts
Gust
kts
10/11:30pm 24.0 23.2 17.0 65 4.3 SE 17 30 9 16 1018.1 1018.0 1.2
10/11:00pm 23.7 22.1 17.4 68 3.9 SE 22 32 12 17 1018.2 1018.1 1.2
10/10:30pm 23.3 22.7 17.5 70 3.6 SSE 17 26 9 14 1018.6 1018.5 1.2
10/10:00pm 23.2 22.7 17.7 71 3.4 SSE 17 28 9 15 1018.7 1018.6 1.2
10/09:30pm 23.5 22.6 17.7 70 3.6 SSE 19 28 10 15 1018.6 1018.5 1.2
10/09:00pm 24.4 22.3 17.1 63 4.5 SE 24 39 13 21 1018.0 1017.9 1.2
10/08:30pm 24.5 22.2 17.5 65 4.4 SE 26 35 14 19 1017.5 1017.4 1.2
10/08:00pm 24.3 22.3 17.5 66 4.2 SE 24 35 13 19 1017.5 1017.4 1.2
10/07:30pm 24.1 22.1 17.4 66 4.2 SE 24 37 13 20 1017.4 1017.3 1.2
10/07:00pm 23.9 21.7 17.9 69 3.7 SE 26 44 14 24 1017.1 1017.0 1.2
10/06:30pm 23.8 22.0 17.8 69 3.7 SE 24 44 13 24 1016.6 1016.5 1.2
10/06:00pm 23.6 21.8 17.8 70 3.6 SE 24 35 13 19 1016.3 1016.2 1.2
10/05:30pm 23.3 21.3 18.4 74 3.1 SE 26 35 14 19 1016.0 1015.9 1.2
10/05:00pm 22.9 22.8 19.5 81 2.2 SE 19 28 10 15 1015.9 1015.8 1.2
10/04:53pm 22.8 22.7 19.6 82 2.0 SE 19 35 10 19 1015.9 1015.8 1.2
10/04:35pm 22.4 21.4 19.6 84 1.8 SE 24 33 13 18 1016.0 1015.9 1.0
10/04:30pm 22.9 21.8 19.5 81 2.2 SE 24 33 13 18 1015.9 1015.8 0.0
10/04:00pm 22.9 23.0 20.4 86 1.6 SE 20 30 11 16 1015.9 1015.8 0.0
10/03:30pm 23.2 21.2 20.0 82 2.1 SE 30 48 16 26 1015.2 1015.1 0.0
10/03:00pm 24.2 20.9 20.1 78 2.7 SE 37 59 20 32 1015.1 1015.0 0.0
10/02:54pm 24.8 21.2 19.4 72 3.5 SE 37 59 20 32 1014.9 1014.8 0.0
10/02:49pm 27.0 24.7 20.6 68 4.2 ESE 33 57 18 31 1014.6 1014.5 0.0
10/02:30pm 27.9 25.9 20.7 65 4.8 ESE 32 39 17 21 1014.6 1014.5 0.0
10/02:00pm 28.0 26.7 21.3 67 4.5 ESE 30 43 16 23 1014.7 1014.6 0.0
10/01:30pm 27.8 26.5 21.3 67 4.3 E 30 41 16 22 1014.7 1014.6 0.0
10/01:00pm 27.6 27.8 22.1 72 3.7 ESE 24 32 13 17 1015.3 1015.2 0.0
10/12:30pm 26.9 26.9 21.0 70 3.9 SE 22 33 12 18 1015.9 1015.8 0.0
10/12:00pm 26.8 26.4 20.2 67 4.3 ESE 22 32 12 17 1016.1 1016.0 0.0
10/11:30am 28.2 28.2 21.7 68 4.4 E 24 33 13 18 1015.9 1015.8 0.0
10/11:00am 28.6 28.3 21.1 64 5.0 ESE 24 35 13 19 1016.0 1015.9 0.0
10/10:30am 28.9 28.8 21.4 64 5.0 ESE 24 32 13 17 1015.9 1015.8 0.0
10/10:00am 27.6 27.4 21.2 68 4.2 E 24 32 13 17 1016.2 1016.1 0.0
10/09:30am 27.8 28.1 21.6 69 4.1 ESE 22 32 12 17 1016.0 1015.9 0.0
10/09:00am 28.5 29.1 21.0 64 5.0 SE 19 28 10 15 1015.8 1015.7 27.4
10/08:30am 28.0 28.9 20.8 65 4.8 ESE 17 26 9 14 1015.8 1015.7 27.4
10/08:00am 27.1 28.4 21.6 72 3.7 SE 17 30 9 16 1015.7 1015.6 27.4
10/07:30am 26.5 28.6 21.7 75 3.2 SE 13 17 7 9 1015.4 1015.3 27.4
10/07:00am 25.6 28.7 22.1 81 2.3 S 9 13 5 7 1015.1 1015.0 27.4
10/06:30am 24.8 28.5 22.5 87 1.5 S 7 9 4 5 1014.6 1014.5 27.4
10/06:00am 23.9 27.4 22.2 90 1.1 SSW 7 9 4 5 1014.3 1014.2 27.4
10/05:30am 23.5 26.8 21.9 91 1.1 S 7 9 4 5 1013.9 1013.8 27.4
10/05:00am 23.4 26.7 21.8 91 1.1 SSW 7 11 4 6 1013.6 1013.5 27.4
10/04:30am 23.4 26.7 21.8 91 1.1 SSW 7 13 4 7 1013.3 1013.2 27.4
10/04:00am 23.5 27.8 21.9 91 1.1 SSW 2 11 1 6 1013.1 1013.0 27.4
10/03:30am 23.5 27.8 21.9 91 1.1 WSW 2 6 1 3 1012.9 1012.8 27.4
10/03:00am 23.4 26.7 21.8 91 1.1 S 7 9 4 5 1012.5 1012.4 27.4
10/02:30am 23.5 26.8 21.9 91 1.1 SSW 7 11 4 6 1012.8 1012.7 27.2
10/02:00am 23.4 26.3 21.8 91 1.1 SW 9 13 5 7 1013.1 1013.0 27.2
10/01:30am 23.5 28.0 21.6 89 1.3 CALM 0 0 0 0 1012.8 1012.7 27.2
10/01:00am 23.4 27.1 21.5 89 1.3 S 4 9 2 5 1013.3 1013.2 27.2
10/12:30am 23.7 27.2 21.8 89 1.3 SW 6 9 3 5 1013.9 1013.8 27.2
10/12:00am 24.1 27.6 21.8 87 1.5 NNW 6 7 3 4 1013.9 1013.8 27.2
 
Date/Time
EST
Temp
°C
App
Temp
°C
Dew
Point
°C
Rel
Hum
%
Delta-T
°C
Wind Press
QNH
hPa
Press
MSL
hPa
Rain since
9am
mm
Dir  Spd
km/h
Gust
km/h
Spd
kts
Gust
kts
09/11:30pm 23.8 27.3 21.9 89 1.3 N 6 7 3 4 1013.7 1013.6 27.2
09/11:00pm 23.6 26.9 21.5 88 1.4 WNW 6 9 3 5 1014.0 1013.9 27.2
09/10:52pm 23.7 27.1 21.6 88 1.4 WNW 6 7 3 4 1013.9 1013.8 27.2
09/10:30pm 23.9 27.2 21.8 88 1.4 N 7 11 4 6 1014.1 1014.0 27.2
09/10:00pm 23.7 27.2 21.8 89 1.3 ENE 6 11 3 6 1014.0 1013.9 27.2
09/09:53pm 23.7 27.7 22.1 91 1.1 E 4 9 2 5 1014.0 1013.9 27.2
09/09:30pm 23.7 26.9 22.3 92 0.9 E 9 15 5 8 1014.1 1014.0 27.2
09/09:00pm 23.2 26.1 21.8 92 0.9 E 9 11 5 6 1013.4 1013.3 27.0
09/08:30pm 23.2 26.6 21.6 91 1.1 NNE 6 9 3 5 1013.8 1013.7 25.8
09/08:00pm 22.8 25.5 21.3 91 1.0 WSW 9 13 5 7 1013.7 1013.6 24.6
09/07:33pm 23.1 26.1 21.9 93 0.8 SW 9 15 5 8 1013.0 1012.9 23.6
09/07:30pm 23.1 26.4 21.9 93 0.8 SW 7 13 4 7 1012.9 1012.8 23.6
09/07:20pm 22.9 26.6 21.4 91 1.0 E 4 9 2 5 1012.6 1012.5 23.4
09/07:00pm 22.8 24.5 20.9 89 1.2 WNW 13 19 7 10 1013.1 1013.0 20.2
09/06:50pm 23.5 24.4 21.6 89 1.3 WSW 19 35 10 19 1013.3 1013.2 13.6
09/06:44pm 24.4 25.2 21.3 83 2.0 SW 19 35 10 19 1012.7 1012.6 2.4
09/06:30pm 27.1 29.7 21.2 70 3.9 NE 9 30 5 16 1011.7 1011.6 0.0
09/06:00pm 28.1 30.4 21.4 67 4.5 ENE 11 13 6 7 1011.2 1011.1 0.0
09/05:30pm 28.4 30.1 21.7 67 4.5 NE 15 20 8 11 1010.5 1010.4 0.0
09/05:00pm 28.6 29.9 21.6 66 4.7 ENE 17 22 9 12 1009.4 1009.3 0.0
09/04:30pm 29.6 31.2 21.5 61 5.4 NE 15 20 8 11 1009.4 1009.3 0.0
09/04:00pm 30.3 30.3 19.0 50 7.3 NE 17 24 9 13 1009.3 1009.2 0.0
09/03:30pm 31.0 30.2 18.4 47 8.1 NNE 20 28 11 15 1009.1 1009.0 0.0
09/03:00pm 31.4 30.0 18.0 44 8.6 ENE 22 30 12 16 1009.0 1008.9 0.0
09/02:30pm 32.8 31.1 18.2 42 9.4 NE 24 32 13 17 1009.0 1008.9 0.0
09/02:00pm 32.5 31.1 18.7 44 9.0 NE 24 32 13 17 1009.1 1009.0 0.0
09/01:30pm 32.5 31.6 19.0 44 8.8 NE 22 30 12 16 1009.3 1009.2 0.0
09/01:00pm 33.0 32.4 19.8 45 8.7 NE 22 28 12 15 1009.5 1009.4 0.0
09/12:30pm 32.3 31.5 19.2 46 8.6 NE 22 28 12 15 1009.7 1009.6 0.0
09/12:00pm 32.5 32.1 19.4 46 8.6 NE 20 28 11 15 1009.7 1009.6 0.0
09/11:30am 32.0 31.9 19.9 48 8.0 NE 20 28 11 15 1010.0 1009.9 0.0
09/11:00am 31.7 31.6 18.7 46 8.4 NNE 17 22 9 12 1010.3 1010.2 0.0
09/10:30am 31.9 31.5 18.8 45 8.5 NNE 19 28 10 15 1010.6 1010.5 0.0
09/10:00am 32.2 33.9 18.4 44 8.9 NNW 7 11 4 6 1010.8 1010.7 0.0
09/09:30am 31.7 33.5 18.7 46 8.4 SE 7 17 4 9 1011.1 1011.0 0.0
09/09:00am 30.2 31.4 18.3 49 7.7 NE 9 15 5 8 1011.3 1011.2 0.0
09/08:30am 29.6 31.5 19.0 53 6.9 W 7 11 4 6 1011.6 1011.5 0.0
09/08:00am 28.9 30.4 18.9 54 6.5 WSW 9 13 5 7 1012.1 1012.0 0.0
09/07:30am 27.9 29.2 19.4 60 5.5 W 11 15 6 8 1012.4 1012.3 0.0
09/07:00am 27.4 28.6 20.0 64 4.8 WSW 13 19 7 10 1012.5 1012.4 0.0
09/06:30am 26.0 29.0 21.2 75 3.2 W 7 11 4 6 1012.4 1012.3 0.0
09/06:00am 24.9 27.4 21.0 79 2.6 SW 9 13 5 7 1012.2 1012.1 0.0
09/05:30am 24.1 26.6 21.0 83 2.0 SW 9 13 5 7 1011.9 1011.8 0.0
09/05:00am 23.8 25.9 20.9 84 1.9 SW 11 15 6 8 1011.4 1011.3 0.0
09/04:30am 24.4 27.3 21.1 82 2.2 SW 7 11 4 6 1011.2 1011.1 0.0
09/04:00am 24.5 27.5 21.2 82 2.2 SSW 7 9 4 5 1010.7 1010.6 0.0
09/03:30am 24.6 27.6 20.9 80 2.4 SSW 6 7 3 4 1010.4 1010.3 0.0
09/03:00am 24.9 28.0 21.0 79 2.6 SW 6 7 3 4 1010.3 1010.2 0.0
09/02:30am 25.6 28.3 21.3 77 2.8 NW 9 13 5 7 1010.4 1010.3 0.0
09/02:00am 25.7 28.6 21.1 76 3.0 WNW 7 11 4 6 1010.5 1010.4 0.0
09/01:30am 25.9 28.6 21.3 76 3.0 NNW 9 13 5 7 1010.5 1010.4 0.0
09/01:00am 26.1 29.2 21.5 76 3.1 NNW 7 11 4 6 1010.9 1010.8 0.0
09/12:30am 26.0 28.7 21.4 76 3.1 N 9 15 5 8 1010.9 1010.8 0.0
09/12:00am 26.1 28.0 21.3 75 3.2 N 13 20 7 11 1011.2 1011.1 0.0
 
Date/Time
EST
Temp
°C
App
Temp
°C
Dew
Point
°C
Rel
Hum
%
Delta-T
°C
Wind Press
QNH
hPa
Press
MSL
hPa
Rain since
9am
mm
Dir  Spd
km/h
Gust
km/h
Spd
kts
Gust
kts
08/11:30pm 26.2 28.1 21.4 75 3.2 N 13 17 7 9 1011.3 1011.2 0.0
08/11:00pm 26.5 28.6 21.7 75 3.2 N 13 19 7 10 1011.8 1011.7 0.0
08/10:30pm 26.6 28.8 21.8 75 3.2 N 13 19 7 10 1011.8 1011.7 0.0
08/10:00pm 26.6 28.6 21.6 74 3.3 N 13 20 7 11 1011.9 1011.8 0.0
08/09:30pm 26.7 28.3 21.5 73 3.5 N 15 22 8 12 1011.8 1011.7 0.0
08/09:00pm 26.7 28.8 21.7 74 3.3 NNW 13 20 7 11 1011.5 1011.4 0.0
08/08:30pm 26.6 29.0 21.6 74 3.3 N 11 17 6 9 1010.9 1010.8 0.0
08/08:00pm 26.6 28.2 21.4 73 3.5 N 15 22 8 12 1010.4 1010.3 0.0
08/07:30pm 26.6 27.4 21.4 73 3.5 N 19 28 10 15 1010.2 1010.1 0.0
08/07:00pm 26.7 27.4 21.2 72 3.6 N 19 26 10 14 1009.9 1009.8 0.0
08/06:30pm 26.9 26.9 21.0 70 3.9 N 22 32 12 17 1009.4 1009.3 0.0
08/06:00pm 27.3 27.1 20.6 67 4.4 N 22 33 12 18 1009.0 1008.9 0.0
08/05:30pm 28.0 27.7 20.3 63 5.1 NNE 22 30 12 16 1009.0 1008.9 0.0
08/05:00pm 28.9 28.1 20.1 59 5.8 N 24 32 13 17 1008.8 1008.7 0.0
08/04:30pm 29.1 28.6 20.0 58 6.0 NNE 22 32 12 17 1008.8 1008.7 0.0
08/04:00pm 29.6 28.2 19.6 55 6.5 NNE 26 35 14 19 1008.7 1008.6 0.0

Other Formats:

Comma delimited format used in spreadsheet applications
http://www.bom.gov.au/fwo/IDQ60801/IDQ60801.94381.axf

JavaScript Object Notation format (JSON) in row-major order
http://www.bom.gov.au/fwo/IDQ60801/IDQ60801.94381.json